Time;durP1;ratioP1;P1;durP2;ratioP2;P2;SDS_P1;SDS_P2;PMS_P1;PMS_P2;Temp;Humidity;BMP_temperature;BMP_pressure;BME280_temperature;BME280_humidity;BME280_pressure;Samples;Min_cycle;Max_cycle;Signal;HPM_P1;HPM_P2
2021/05/20 00:02:29;;;;;;;17.77;11.93;;;12.10;92.10;;;11.11;84.80;100884.38;5028507;28;20052;-76
2021/05/20 00:05:08;;;;;;;17.92;12.60;;;12.10;92.10;;;11.10;84.67;100890.84;5037466;28;20044;-76
2021/05/20 00:07:43;;;;;;;18.02;12.38;;;12.10;91.90;;;11.10;84.72;100885.41;5048214;28;20051;-76
2021/05/20 00:10:18;;;;;;;18.17;12.95;;;12.10;91.90;;;11.09;84.43;100886.44;5048216;28;20056;-76
2021/05/20 00:12:53;;;;;;;20.60;13.05;;;12.10;91.80;;;11.04;83.99;100892.44;5048351;28;20115;-76
2021/05/20 00:15:29;;;;;;;20.90;13.88;;;12.00;91.60;;;11.01;84.24;100890.06;5029711;28;20398;-75
2021/05/20 00:18:07;;;;;;;20.92;13.25;;;12.00;91.50;;;10.96;83.80;100893.31;5048459;28;20075;-76
2021/05/20 00:20:46;;;;;;;19.55;13.35;;;11.90;91.30;;;10.95;83.63;100893.50;5047928;28;20048;-76
2021/05/20 00:23:24;;;;;;;18.50;12.45;;;11.90;91.30;;;10.88;83.26;100887.91;5048308;28;20061;-76
2021/05/20 00:26:04;;;;;;;20.40;13.90;;;11.90;90.90;;;10.86;83.58;100887.25;5030104;28;20063;-76
2021/05/20 00:28:37;;;;;;;22.98;14.43;;;11.90;91.00;;;10.83;83.34;100895.75;5048356;28;20041;-76
2021/05/20 00:31:12;;;;;;;20.35;13.32;;;11.80;90.80;;;10.80;83.25;100882.50;5047959;28;20033;-76
2021/05/20 00:33:48;;;;;;;19.35;12.82;;;11.80;90.80;;;10.76;83.26;100895.63;5027067;28;20045;-76
2021/05/20 00:36:24;;;;;;;20.00;13.55;;;11.70;90.60;;;10.74;83.02;100896.84;5034905;28;20065;-76
2021/05/20 00:39:02;;;;;;;23.20;13.48;;;11.70;90.50;;;10.70;82.99;100899.06;5034643;28;20052;-76
2021/05/20 00:41:48;;;;;;;19.25;13.07;;;11.70;90.50;;;10.68;82.80;100900.22;5047835;28;20091;-76
2021/05/20 00:44:26;;;;;;;20.45;13.60;;;11.60;90.20;;;10.64;82.57;100899.75;5048208;28;20048;-76
2021/05/20 00:47:00;;;;;;;18.00;12.65;;;11.60;90.20;;;10.63;82.71;100898.06;5048126;28;20052;-76
2021/05/20 00:49:35;;;;;;;20.48;13.45;;;11.60;90.30;;;10.61;82.30;100904.72;5047766;28;20049;-76
2021/05/20 00:52:10;;;;;;;19.20;13.50;;;11.60;90.10;;;10.57;82.30;100915.09;5048790;28;20029;-76
2021/05/20 00:54:51;;;;;;;20.90;13.85;;;11.50;90.00;;;10.53;82.20;100914.59;5051717;28;20102;-76
2021/05/20 00:57:32;;;;;;;22.42;14.10;;;11.50;90.00;;;10.51;82.56;100911.19;5051770;28;20056;-76
2021/05/20 01:00:15;;;;;;;18.77;13.82;;;11.50;90.20;;;10.49;82.42;100905.09;5051423;28;20278;-76
2021/05/20 01:02:52;;;;;;;22.20;13.52;;;11.50;90.20;;;10.48;82.49;100908.81;5051755;28;20060;-76
2021/05/20 01:05:27;;;;;;;21.67;14.38;;;11.40;90.00;;;10.46;82.53;100908.13;5050103;28;20048;-76
2021/05/20 01:08:05;;;;;;;20.10;13.90;;;11.40;90.00;;;10.44;82.55;100904.75;5051383;28;20456;-76
2021/05/20 01:10:41;;;;;;;22.05;14.30;;;11.40;90.10;;;10.42;82.23;100912.22;5051138;28;20048;-77
2021/05/20 01:13:17;;;;;;;20.08;14.02;;;11.40;90.10;;;10.39;81.94;100912.56;5051587;28;20056;-76
2021/05/20 01:18:33;;;;;;;21.40;14.48;;;11.30;89.70;;;10.27;81.83;100919.38;5030937;28;20045;-93
2021/05/20 01:21:18;;;;;;;21.95;15.07;;;11.20;89.70;;;10.27;81.97;100913.94;5032224;28;20152;-92
2021/05/20 01:24:02;;;;;;;22.45;14.73;;;11.20;89.90;;;10.25;82.17;100911.38;5032552;28;20172;-92
2021/05/20 01:26:38;;;;;;;22.35;15.43;;;11.20;90.00;;;10.28;82.52;100921.06;5032381;28;20045;-92
2021/05/20 01:29:14;;;;;;;22.42;15.23;;;11.20;90.20;;;10.27;82.64;100927.53;5035521;28;20060;-92
2021/05/20 01:31:49;;;;;;;19.88;14.48;;;11.20;90.60;;;10.27;82.72;100922.09;5052724;28;20029;-92
2021/05/20 01:34:32;;;;;;;24.63;15.55;;;11.20;90.70;;;10.28;83.01;100932.81;5052348;28;20170;-92
2021/05/20 01:37:12;;;;;;;25.10;16.00;;;11.20;90.90;;;10.32;83.57;100930.63;5039952;28;20054;-92
2021/05/20 01:39:46;;;;;;;24.50;15.60;;;11.20;91.20;;;10.35;83.70;100930.28;5032359;28;20033;-92
2021/05/20 01:42:22;;;;;;;22.50;15.40;;;11.20;91.40;;;10.36;83.58;100924.66;5031396;28;20633;-92
2021/05/20 01:45:07;;;;;;;23.50;15.23;;;11.20;91.60;;;10.37;84.09;100928.22;5032725;28;20041;-92
2021/05/20 01:47:44;;;;;;;23.60;16.27;;;11.20;91.90;;;10.39;84.45;100928.06;5032314;28;20073;-92
2021/05/20 01:50:24;;;;;;;27.73;17.17;;;11.30;92.30;;;10.43;84.60;100929.41;5032177;28;20045;-92
2021/05/20 01:53:00;;;;;;;33.27;19.87;;;11.30;92.40;;;10.44;84.96;100926.50;5032715;28;20436;-91
2021/05/20 01:55:33;;;;;;;45.03;21.20;;;11.40;92.60;;;10.51;85.36;100922.09;5032363;28;20182;-91
2021/05/20 01:58:12;;;;;;;47.85;22.52;;;11.40;92.80;;;10.55;85.35;100930.75;5036427;28;20045;-92
2021/05/20 02:00:44;;;;;;;61.97;26.70;;;11.40;93.00;;;10.57;85.84;100921.38;5051916;28;20481;-92
2021/05/20 02:03:23;;;;;;;62.35;27.83;;;11.50;93.30;;;10.62;86.09;100928.16;5051999;28;20067;-92
2021/05/20 02:06:04;;;;;;;71.95;30.83;;;11.50;93.60;;;10.62;86.50;100920.84;5050391;28;20416;-92
2021/05/20 02:08:42;;;;;;;;;;;11.50;93.70;;;10.67;86.56;100926.63;5051054;28;20045;-92
2021/05/20 02:11:18;;;;;;;82.32;33.25;;;11.60;93.90;;;10.69;86.77;100923.72;5067460;28;20361;-92
2021/05/20 02:13:53;;;;;;;83.25;33.00;;;11.60;94.10;;;10.71;86.81;100918.94;5051935;28;20123;-92
2021/05/20 02:16:29;;;;;;;77.13;32.33;;;11.60;94.20;;;10.75;86.84;100923.84;5066805;28;20488;-92
2021/05/20 02:19:08;;;;;;;79.55;32.60;;;11.70;94.30;;;10.78;86.83;100922.69;5052033;28;20112;-91
2021/05/20 02:21:46;;;;;;;87.75;34.88;;;11.70;94.40;;;10.79;86.88;100928.97;5050229;28;20068;-92
2021/05/20 02:24:25;;;;;;;79.53;33.72;;;11.70;94.40;;;10.80;86.93;100928.78;5050574;28;20052;-91
2021/05/20 02:27:03;;;;;;;79.05;33.65;;;11.70;94.40;;;10.77;86.77;100920.97;5066854;28;20049;-92
2021/05/20 02:29:39;;;;;;;82.15;32.55;;;11.70;94.30;;;10.79;86.53;100929.81;5050484;28;20060;-92
2021/05/20 02:32:15;;;;;;;79.88;33.05;;;11.70;94.40;;;10.77;86.72;100926.41;5066875;28;20174;-93
2021/05/20 02:34:53;;;;;;;84.82;33.67;;;11.70;94.30;;;10.80;86.81;100936.13;5051469;28;20041;-92
2021/05/20 02:37:29;;;;;;;85.03;34.08;;;11.70;94.20;;;10.80;86.46;100936.13;5049883;28;20141;-92
2021/05/20 02:40:10;;;;;;;83.30;33.38;;;11.80;94.10;;;10.79;86.59;100942.56;5051056;28;20093;-92
2021/05/20 02:42:45;;;;;;;73.78;32.17;;;11.70;94.00;;;10.75;86.52;100934.75;5051428;28;20041;-91
2021/05/20 02:45:26;;;;;;;70.38;31.02;;;11.70;93.90;;;10.72;86.08;100939.72;5050067;28;20115;-93
2021/05/20 02:48:01;;;;;;;73.95;30.77;;;11.70;93.80;;;10.74;86.22;100937.66;5049511;28;20139;-92
2021/05/20 02:50:37;;;;;;;78.00;31.73;;;11.70;93.80;;;10.77;86.47;100948.19;5049388;28;20059;-92
2021/05/20 02:53:15;;;;;;;71.10;31.23;;;11.70;93.90;;;10.80;86.36;100945.13;5051004;28;20047;-92
2021/05/20 02:55:51;;;;;;;73.80;31.77;;;11.70;93.90;;;10.77;86.24;100942.75;5050928;28;20041;-91
2021/05/20 02:58:29;;;;;;;71.80;30.48;;;11.80;93.80;;;10.79;86.46;100939.84;5050803;28;20048;-91
2021/05/20 03:01:05;;;;;;;78.45;32.35;;;11.70;93.90;;;10.80;86.31;100941.56;5065524;28;20186;-92
2021/05/20 03:03:40;;;;;;;77.43;32.20;;;11.80;93.90;;;10.79;86.68;100937.97;5049698;28;20067;-92
2021/05/20 03:06:18;;;;;;;81.30;33.60;;;11.80;93.90;;;10.81;86.48;100944.09;5050777;28;20061;-91
2021/05/20 03:08:56;;;;;;;80.85;32.22;;;11.80;94.00;;;10.84;86.34;100959.25;5040529;28;20164;-91
2021/05/20 03:11:34;;;;;;;78.38;32.10;;;11.80;94.00;;;10.83;86.23;100960.25;5029006;28;20050;-92
2021/05/20 03:14:12;;;;;;;80.07;33.05;;;11.80;93.90;;;10.81;86.54;100960.41;5030862;28;20044;-92
2021/05/20 03:16:51;;;;;;;90.47;34.30;;;11.80;94.00;;;10.83;86.43;100962.97;5045797;28;20046;-92
2021/05/20 03:19:27;;;;;;;77.75;33.20;;;11.80;94.00;;;10.82;86.65;100947.69;5030410;28;20045;-90
2021/05/20 03:22:03;;;;;;;84.43;34.22;;;11.80;94.00;;;10.85;86.63;100953.63;5045894;28;20410;-92
2021/05/20 03:24:41;;;;;;;79.18;33.65;;;11.80;94.10;;;10.84;86.87;100954.63;5030423;28;20041;-91
2021/05/20 03:27:18;;;;;;;80.22;33.08;;;11.80;94.10;;;10.83;86.76;100949.38;5030231;28;20048;-92
2021/05/20 03:29:56;;;;;;;77.07;32.60;;;11.80;94.10;;;10.85;86.69;100956.34;5028643;28;20107;-91
2021/05/20 03:32:31;;;;;;;85.70;32.40;;;11.80;94.10;;;10.84;86.43;100954.63;5030448;28;20400;-91
2021/05/20 03:35:11;;;;;;;82.50;31.90;;;11.80;94.10;;;10.87;86.63;100959.75;5029098;28;20128;-92
2021/05/20 03:37:49;;;;;;;85.22;32.33;;;11.80;94.00;;;10.86;86.28;100963.47;5028978;28;20471;-92
2021/05/20 03:40:25;;;;;;;89.05;34.40;;;11.80;94.00;;;10.82;86.13;100959.41;5030137;28;20071;-92
2021/05/20 03:43:01;;;;;;;88.45;33.63;;;11.80;93.90;;;10.81;86.23;100970.47;5030209;28;20049;-92
2021/05/20 03:45:39;;;;;;;81.28;32.58;;;11.80;93.90;;;10.82;86.39;100967.59;5030193;28;20056;-92
2021/05/20 03:48:18;;;;;;;88.80;31.50;;;11.80;93.90;;;10.85;86.67;100972.69;5028879;28;20049;-91
2021/05/20 03:50:56;;;;;;;86.10;32.80;;;11.80;93.80;;;10.84;86.55;100968.25;5035648;28;20061;-92
2021/05/20 03:53:32;;;;;;;84.32;33.85;;;11.80;94.00;;;10.89;86.92;100973.16;5047882;28;20049;-92
2021/05/20 03:56:10;;;;;;;83.20;33.50;;;11.80;94.20;;;10.85;86.87;100972.69;5047907;28;20084;-92
2021/05/20 03:58:47;;;;;;;87.15;36.60;;;11.80;94.20;;;10.88;86.95;100974.19;5049062;28;20045;-91
2021/05/20 04:01:25;;;;;;;87.95;36.00;;;11.80;94.20;;;10.87;86.90;100980.66;5049519;28;20048;-92
2021/05/20 04:04:01;;;;;;;92.85;36.65;;;11.80;94.20;;;10.87;86.67;100981.53;5053268;28;20049;-90
2021/05/20 04:06:39;;;;;;;94.53;36.33;;;11.80;94.10;;;10.83;86.71;100980.16;5049785;28;20055;-92
2021/05/20 04:09:17;;;;;;;81.50;34.80;;;11.80;94.10;;;10.82;86.93;100978.47;5064997;28;20795;-92
2021/05/20 04:11:53;;;;;;;85.63;35.50;;;11.80;94.20;;;10.87;87.26;100983.38;5049313;28;20056;-91
2021/05/20 04:14:32;;;;;;;91.18;37.63;;;11.80;94.30;;;10.89;86.81;100979.47;5049012;28;20132;-93
2021/05/20 04:17:11;;;;;;;100.22;40.28;;;11.90;94.40;;;10.89;86.98;100984.91;5049053;28;20111;-92
2021/05/20 04:19:43;;;;;;;99.38;41.60;;;11.80;94.20;;;10.87;87.06;100972.50;5049416;28;20141;-93
2021/05/20 04:22:21;;;;;;;99.43;41.45;;;11.80;94.20;;;10.89;86.85;100990.38;5049331;28;20067;-92
2021/05/20 04:25:00;;;;;;;112.63;41.20;;;11.90;94.40;;;10.87;86.65;100984.25;5049439;28;20098;-92
2021/05/20 04:27:38;;;;;;;112.78;43.33;;;11.90;94.40;;;10.89;86.86;100984.91;5050000;28;20051;-93
2021/05/20 04:30:14;;;;;;;113.95;44.58;;;11.90;94.40;;;10.89;87.01;100990.38;5051500;28;20132;-92
2021/05/20 04:33:11;;;;;;;104.32;42.10;;;11.90;94.40;;;10.89;87.05;100987.66;5051355;28;20056;-89
2021/05/20 04:35:55;;;;;;;106.00;41.42;;;11.90;94.50;;;10.92;87.31;100995.44;5052452;28;20512;-88
2021/05/20 04:38:39;;;;;;;99.63;40.08;;;11.90;94.50;;;10.93;87.39;100994.44;5052057;28;20049;-85
2021/05/20 04:41:19;;;;;;;101.07;41.60;;;11.90;94.50;;;10.94;87.07;100990.66;5051908;28;20659;-92
2021/05/20 04:43:55;;;;;;;109.47;43.15;;;11.90;94.50;;;10.94;86.94;100987.94;5052461;28;20112;-89
2021/05/20 04:46:31;;;;;;;101.25;43.22;;;11.90;94.40;;;10.94;86.83;100993.41;5051864;28;20071;-91
2021/05/20 04:49:16;;;;;;;99.85;43.03;;;11.90;94.40;;;10.93;86.78;101002.59;5051199;28;20057;-89
2021/05/20 04:51:51;;;;;;;117.88;45.22;;;11.90;94.30;;;10.96;86.66;101002.22;5052078;28;20298;-90
2021/05/20 04:54:29;;;;;;;100.35;42.97;;;11.90;94.20;;;10.94;86.73;101007.00;5052518;28;20072;-87
2021/05/20 04:57:04;;;;;;;103.82;45.17;;;11.90;94.10;;;10.94;86.57;101004.28;5051394;28;20053;-88
2021/05/20 04:59:43;;;;;;;112.47;45.00;;;11.90;94.10;;;10.95;86.60;101016.06;5051586;28;20538;-88
2021/05/20 05:02:25;;;;;;;97.75;42.50;;;11.90;94.10;;;10.95;86.97;101006.00;5051598;28;20037;-87
2021/05/20 05:05:07;;;;;;;104.40;44.85;;;11.90;94.20;;;11.01;86.53;101009.91;5051236;28;20037;-87
2021/05/20 05:07:43;;;;;;;99.50;43.38;;;12.00;94.20;;;11.03;86.48;101015.19;5051497;28;20059;-88
2021/05/20 05:10:19;;;;;;;96.43;41.33;;;12.00;94.10;;;11.04;86.32;101015.00;5051335;28;20055;-88
2021/05/20 05:12:57;;;;;;;93.53;40.72;;;12.00;94.10;;;11.04;86.84;101020.44;5051649;28;20551;-90
2021/05/20 05:15:35;;;;;;;101.47;43.83;;;12.00;94.10;;;11.03;86.55;101024.19;5051811;28;20037;-86
2021/05/20 05:18:11;;;;;;;102.00;43.95;;;12.00;94.00;;;11.05;86.75;101021.28;5066622;28;20588;-85
2021/05/20 05:20:47;;;;;;;109.45;46.10;;;12.00;94.00;;;11.04;86.49;101025.03;5050978;28;20053;-86
2021/05/20 05:23:22;;;;;;;101.85;44.83;;;12.00;94.00;;;11.07;86.55;101030.13;5051458;28;20049;-84
2021/05/20 05:26:01;;;;;;;110.75;45.33;;;12.00;94.00;;;11.09;86.96;101019.91;5051056;28;20041;-85
2021/05/20 05:28:39;;;;;;;105.88;45.03;;;12.00;94.30;;;11.10;87.12;101024.31;5051237;28;20045;-85
2021/05/20 05:31:16;;;;;;;109.45;46.88;;;12.00;94.50;;;11.10;87.59;101027.91;5050786;28;20130;-85
2021/05/20 05:33:56;;;;;;;106.03;46.08;;;12.10;94.40;;;11.12;86.72;101027.75;5046933;28;20052;-87
2021/05/20 05:36:36;;;;;;;110.35;46.95;;;12.10;94.20;;;11.13;86.65;101033.00;5048496;28;20063;-84
2021/05/20 05:39:15;;;;;;;110.75;49.28;;;12.10;94.20;;;11.13;86.68;101045.78;5049922;28;20136;-85
2021/05/20 05:41:51;;;;;;;117.10;50.30;;;12.10;94.10;;;11.12;87.12;101046.81;5045187;28;20072;-83
2021/05/20 05:44:27;;;;;;;114.82;49.08;;;12.10;94.30;;;11.14;87.53;101040.16;5030983;28;20915;-83
2021/05/20 05:47:02;;;;;;;110.22;48.53;;;12.10;94.40;;;11.17;87.31;101038.09;5030378;28;20068;-80
2021/05/20 05:49:40;;;;;;;106.03;46.38;;;12.10;94.50;;;11.16;87.15;101037.25;5029215;28;20077;-78
2021/05/20 05:52:19;;;;;;;105.80;46.83;;;12.20;94.40;;;11.19;87.06;101038.78;5045359;28;20124;-81
2021/05/20 05:54:53;;;;;;;106.82;46.97;;;12.20;94.20;;;11.20;86.98;101030.44;5023739;28;20057;-80
2021/05/20 05:57:31;;;;;;;102.07;44.30;;;12.20;94.20;;;11.22;87.28;101022.94;5050012;28;20052;-80
2021/05/20 06:00:10;;;;;;;95.85;44.88;;;12.20;94.40;;;11.26;87.24;101023.44;5048691;28;20067;-80
2021/05/20 06:02:53;;;;;;;94.32;44.03;;;12.20;94.40;;;11.28;87.08;101026.81;5049776;28;20048;-81
2021/05/20 06:05:32;;;;;;;83.30;42.28;;;12.30;94.50;;;11.28;87.12;101021.38;5050501;28;20045;-80
2021/05/20 06:08:11;;;;;;;80.88;40.97;;;12.20;94.20;;;11.27;86.84;101020.53;5049252;28;20049;-80
2021/05/20 06:10:49;;;;;;;77.60;40.08;;;12.30;94.30;;;11.29;87.29;101018.47;5050143;28;20760;-81
2021/05/20 06:13:27;;;;;;;72.38;38.67;;;12.30;94.40;;;11.34;87.12;101021.50;5050242;28;20067;-80
2021/05/20 06:16:05;;;;;;;79.05;40.38;;;12.30;94.20;;;11.36;86.97;101021.31;5050256;28;20056;-81
2021/05/20 06:18:40;;;;;;;76.85;39.33;;;12.40;94.40;;;11.39;86.86;101020.16;5050264;28;20056;-81
2021/05/20 06:21:25;;;;;;;73.18;38.30;;;12.40;94.30;;;11.41;87.35;101026.25;5049981;28;20072;-81
2021/05/20 06:23:58;;;;;;;77.22;37.72;;;12.40;94.40;;;11.39;87.10;101028.31;5049978;28;20075;-80
2021/05/20 06:26:36;;;;;;;69.57;35.85;;;12.40;94.30;;;11.43;86.88;101033.22;5049826;28;20061;-80
2021/05/20 06:29:12;;;;;;;70.50;35.95;;;12.40;94.20;;;11.44;86.97;101023.16;5049990;28;20041;-80
2021/05/20 06:31:44;;;;;;;69.28;36.60;;;12.40;94.40;;;11.46;87.08;101023.84;5049206;28;20095;-81
2021/05/20 06:34:22;;;;;;;76.32;38.13;;;12.40;94.50;;;11.45;86.87;101022.16;5049826;28;20044;-84
2021/05/20 06:37:02;;;;;;;70.97;37.72;;;12.50;94.30;;;11.48;87.25;101029.94;5049019;28;20052;-83
2021/05/20 06:39:41;;;;;;;66.43;38.27;;;12.50;94.30;;;11.51;86.89;101026.88;5049622;28;20072;-82
2021/05/20 06:42:19;;;;;;;67.07;35.05;;;12.50;94.10;;;11.52;86.92;101028.59;5049572;28;20425;-83
2021/05/20 06:44:57;;;;;;;61.15;31.63;;;12.50;94.10;;;11.53;86.85;101035.72;5049550;28;20056;-83
2021/05/20 06:47:36;;;;;;;59.95;32.60;;;12.60;94.30;;;11.57;87.16;101030.78;5049369;28;20572;-83
2021/05/20 06:50:16;;;;;;;54.92;30.15;;;12.60;94.20;;;11.57;86.63;101042.53;5049062;28;20140;-82
2021/05/20 06:52:55;;;;;;;55.88;31.05;;;12.60;94.00;;;11.60;86.80;101049.50;5064851;28;20097;-82
2021/05/20 06:55:33;;;;;;;59.90;32.30;;;12.60;94.00;;;11.60;86.80;101039.44;5049315;28;20504;-82
2021/05/20 07:01:02;;;;;;;75.65;37.95;;;12.70;94.30;;;11.65;86.78;101037.03;5048931;28;20408;-82
2021/05/20 07:03:41;;;;;;;73.57;37.55;;;12.70;93.80;;;11.66;86.73;101041.44;5048936;28;20056;-82
2021/05/20 07:06:16;;;;;;;80.57;38.95;;;12.70;93.80;;;11.67;86.65;101042.28;5049020;28;20189;-82
2021/05/20 07:08:55;;;;;;;80.50;39.88;;;12.80;93.60;;;11.74;86.65;101044.13;5048323;28;20048;-83
2021/05/20 07:11:35;;;;;;;78.78;38.67;;;12.90;93.80;;;11.76;86.86;101046.69;5048905;28;20787;-83
2021/05/20 07:14:07;;;;;;;85.82;40.85;;;12.80;93.70;;;11.80;86.75;101041.72;5049340;28;20049;-83
2021/05/20 07:16:48;;;;;;;85.50;39.72;;;12.80;93.50;;;11.80;86.54;101049.91;5063563;22;20192;-79
2021/05/20 07:19:23;;;;;;;79.75;38.58;;;12.80;93.50;;;11.79;86.96;101056.41;5028919;28;20049;-79
2021/05/20 07:21:57;;;;;;;86.57;41.40;;;12.90;93.50;;;11.81;86.98;101054.34;5009373;28;20053;-78
2021/05/20 07:24:34;;;;;;;74.35;36.00;;;12.90;93.60;;;11.76;86.54;101068.50;5008933;28;20049;-79
2021/05/20 07:27:06;;;;;;;67.32;35.78;;;12.90;93.40;;;11.77;86.25;101074.81;5003954;28;20490;-79
2021/05/20 07:29:44;;;;;;;60.42;34.65;;;12.90;93.30;;;11.79;86.07;101070.03;4989260;28;20100;-79
2021/05/20 07:32:20;;;;;;;63.63;35.33;;;12.90;93.20;;;11.82;86.28;101066.94;5007818;28;20402;-79
2021/05/20 07:34:56;;;;;;;56.80;32.75;;;12.90;93.30;;;11.76;85.96;101067.66;5008346;28;20070;-79
2021/05/20 07:37:31;;;;;;;54.72;31.75;;;12.90;93.00;;;11.81;86.48;101070.69;5009135;28;20116;-78
2021/05/20 07:40:08;;;;;;;51.30;32.30;;;12.90;93.10;;;11.77;86.31;101072.09;5007290;28;20046;-79
2021/05/20 07:42:43;;;;;;;48.20;30.42;;;12.90;92.90;;;11.81;86.67;101076.16;5009213;28;20565;-80
2021/05/20 07:45:22;;;;;;;48.33;30.02;;;12.90;93.10;;;11.82;86.33;101077.84;5009224;28;20041;-78
2021/05/20 07:47:57;;;;;;;47.20;29.63;;;12.90;93.00;;;11.82;86.43;101075.97;5009037;28;20041;-79
2021/05/20 07:50:30;;;;;;;46.88;28.98;;;12.90;92.80;;;11.84;86.33;101075.78;5008889;28;20048;-79
2021/05/20 07:53:11;;;;;;;48.67;29.52;;;12.90;92.80;;;11.84;85.69;101075.78;5008806;28;20677;-78
2021/05/20 07:55:47;;;;;;;51.60;29.55;;;12.90;92.70;;;11.86;86.17;101079.16;5008901;28;20045;-78
2021/05/20 07:58:25;;;;;;;48.55;31.00;;;12.90;92.70;;;11.88;85.66;101080.72;5008728;28;20041;-79
2021/05/20 08:01:12;;;;;;;46.92;30.02;;;12.90;92.60;;;11.88;85.42;101088.91;5008690;28;20057;-78
2021/05/20 08:03:53;;;;;;;49.15;29.63;;;12.90;92.50;;;11.89;85.70;101084.28;4987500;28;20046;-78
2021/05/20 08:06:37;;;;;;;47.63;30.00;;;12.90;92.60;;;11.91;85.79;101079.53;4989308;28;20053;-77
2021/05/20 08:09:21;;;;;;;49.28;29.55;;;12.90;92.60;;;11.93;85.34;101091.09;4999305;28;20558;-77
2021/05/20 08:11:57;;;;;;;50.15;30.58;;;13.00;92.40;;;11.97;85.78;101081.53;5008732;28;20046;-77
2021/05/20 08:14:32;;;;;;;51.90;31.50;;;13.00;92.60;;;11.99;86.21;101090.38;4991159;28;20053;-77
2021/05/20 08:17:09;;;;;;;51.55;30.30;;;13.00;92.70;;;12.02;85.60;101081.84;4989672;28;20041;-78
2021/05/20 08:19:45;;;;;;;49.42;29.92;;;13.10;92.70;;;12.03;85.53;101091.75;5007823;28;20050;-78
2021/05/20 08:22:23;;;;;;;54.63;31.75;;;13.10;92.60;;;12.01;85.57;101087.47;5003080;28;20054;-77
2021/05/20 08:24:59;;;;;;;53.60;31.98;;;13.10;92.40;;;12.02;85.41;101095.50;4989008;28;20046;-77
2021/05/20 08:27:33;;;;;;;58.25;32.33;;;13.10;92.40;;;12.02;85.61;101089.19;4989011;28;20046;-77
2021/05/20 08:30:10;;;;;;;58.40;33.85;;;13.10;92.60;;;12.02;85.75;101089.19;4988918;28;20046;-78
2021/05/20 08:32:45;;;;;;;57.33;33.33;;;13.10;92.50;;;12.05;85.75;101078.78;4989048;28;20034;-77
2021/05/20 08:35:22;;;;;;;58.13;33.45;;;13.20;92.40;;;12.04;85.79;101082.50;5000247;28;20053;-78
2021/05/20 08:38:01;;;;;;;61.38;34.40;;;13.20;92.40;;;12.06;85.28;101079.59;5008368;28;20049;-78
2021/05/20 08:40:37;;;;;;;62.10;36.33;;;13.20;92.30;;;12.04;85.59;101077.06;5007824;28;20502;-77
2021/05/20 08:43:11;;;;;;;65.22;36.08;;;13.20;92.10;;;12.08;85.31;101074.81;5008413;28;20045;-77
2021/05/20 08:45:49;;;;;;;67.80;37.33;;;13.20;92.20;;;12.09;85.47;101082.00;5008562;28;20053;-77
2021/05/20 08:48:24;;;;;;;65.13;36.83;;;13.20;92.10;;;12.04;85.30;101078.94;5008355;28;20050;-77
2021/05/20 08:51:01;;;;;;;73.85;37.40;;;13.20;92.10;;;12.06;85.36;101079.59;5008236;28;20057;-78
2021/05/20 08:53:39;;;;;;;68.15;36.85;;;13.20;92.20;;;12.07;85.73;101071.25;5008513;28;20073;-78
2021/05/20 08:56:19;;;;;;;72.22;37.20;;;13.20;92.20;;;12.11;85.55;101075.31;5008391;28;20060;-79
2021/05/20 08:59:01;;;;;;;73.60;38.33;;;13.30;92.30;;;12.16;85.58;101068.47;5008347;28;20053;-78
2021/05/20 09:01:48;;;;;;;74.90;37.42;;;13.30;92.30;;;12.17;85.76;101064.72;5007868;28;20490;-78
2021/05/20 09:04:29;;;;;;;73.90;37.50;;;13.30;92.30;;;12.20;86.40;101062.44;5008333;28;20046;-76
2021/05/20 09:07:09;;;;;;;76.72;37.17;;;13.30;92.40;;;12.28;86.45;101066.97;5007486;28;20053;-77
2021/05/20 09:09:48;;;;;;;75.25;36.80;;;13.40;92.70;;;12.31;87.19;101063.91;4984302;28;20050;-78
2021/05/20 09:12:26;;;;;;;66.82;34.47;;;13.50;92.70;;;12.38;85.61;101064.88;5004314;28;20188;-78
2021/05/20 09:15:14;;;;;;;76.03;36.40;;;13.60;91.60;;;12.32;85.31;101068.34;4973846;28;20062;-78
2021/05/20 09:17:53;;;;;;;75.05;36.47;;;13.70;90.90;;;12.20;85.68;101065.16;4992097;28;20046;-78
2021/05/20 09:20:35;;;;;;;75.05;36.45;;;13.60;90.40;;;12.29;86.65;101064.09;4991254;28;20070;-78
2021/05/20 09:23:15;;;;;;;63.08;32.13;;;13.70;91.10;;;12.42;87.76;101058.00;4994669;28;20502;-78
2021/05/20 09:25:53;;;;;;;55.45;29.23;;;13.80;92.20;;;12.61;89.19;101055.81;5003290;28;20050;-78
2021/05/20 09:28:41;;;;;;;52.60;28.38;;;13.90;93.60;;;12.70;86.18;101046.53;4993886;28;20460;-78
2021/05/20 09:31:34;;;;;;;42.70;25.30;;;14.10;91.70;;;12.75;85.15;101048.69;5011354;28;20049;-77
2021/05/20 09:34:22;;;;;;;47.70;25.50;;;14.10;90.30;;;12.80;84.12;101048.97;4979707;28;20045;-76
2021/05/20 09:36:58;;;;;;;42.63;24.55;;;14.20;89.60;;;12.85;84.70;101043.78;5011492;28;20042;-77
2021/05/20 09:39:36;;;;;;;45.58;24.80;;;14.20;89.70;;;12.89;83.17;101051.44;5010564;28;20048;-77
2021/05/20 09:42:26;;;;;;;45.08;26.38;;;14.30;89.50;;;12.92;83.88;101047.47;4991161;28;20054;-77
2021/05/20 09:45:10;;;;;;;41.47;23.98;;;14.30;89.00;;;12.96;83.63;101042.47;5010440;28;20061;-77
2021/05/20 09:47:54;;;;;;;41.15;24.30;;;14.40;88.90;;;13.00;82.59;101038.34;5005380;28;20046;-77
2021/05/20 09:50:32;;;;;;;41.72;24.83;;;14.40;88.70;;;13.06;83.62;101037.56;5010283;28;20046;-77
2021/05/20 09:53:12;;;;;;;37.70;23.30;;;14.50;88.50;;;13.11;82.58;101029.69;5011048;28;20042;-77
2021/05/20 09:55:56;;;;;;;41.55;23.88;;;14.50;87.60;;;13.13;82.76;101027.59;4993257;28;20560;-77
2021/05/20 09:58:39;;;;;;;42.55;24.20;;;14.60;88.00;;;13.17;82.96;101030.81;5010955;28;20421;-76
2021/05/20 10:01:26;;;;;;;46.67;24.63;;;14.60;88.00;;;13.19;82.46;101024.09;5010029;28;20050;-76
2021/05/20 10:04:07;;;;;;;44.38;25.00;;;14.70;87.50;;;13.22;81.66;101020.16;4995496;28;20050;-76
2021/05/20 10:06:49;;;;;;;41.35;24.13;;;14.70;87.60;;;13.24;81.83;101018.09;4992172;28;20084;-76
2021/05/20 10:09:28;;;;;;;40.20;24.15;;;14.70;87.30;;;13.32;82.73;101011.69;5010712;28;20041;-76
2021/05/20 10:12:06;;;;;;;38.33;22.02;;;14.80;87.50;;;13.38;81.01;101013.66;5010619;28;20398;-76
2021/05/20 10:14:42;;;;;;;43.20;23.58;;;14.80;85.40;;;13.46;82.66;100999.88;5010719;28;20054;-76
2021/05/20 10:17:19;;;;;;;39.80;21.92;;;14.90;86.60;;;13.54;82.12;101007.97;5007545;28;20101;-76
2021/05/20 10:19:55;;;;;;;33.33;20.88;;;14.90;86.70;;;13.52;79.88;100995.53;4990134;28;20038;-76
2021/05/20 10:22:35;;;;;;;37.78;21.52;;;15.00;85.00;;;13.48;78.00;100989.63;4993297;28;20051;-76
2021/05/20 10:25:09;;;;;;;33.58;19.38;;;15.00;84.40;;;13.56;80.66;100978.56;5009237;28;20383;-76
2021/05/20 10:27:48;;;;;;;31.42;19.08;;;15.00;85.20;;;13.64;78.53;100985.78;4994967;28;20033;-77
2021/05/20 10:30:27;;;;;;;32.45;18.90;;;15.10;83.80;;;13.73;81.77;100992.84;5010025;28;20045;-77
2021/05/20 10:33:07;;;;;;;32.20;18.67;;;15.10;85.00;;;13.78;79.77;100989.50;5010313;28;20049;-76
2021/05/20 10:35:54;;;;;;;29.30;17.52;;;15.30;84.70;;;13.87;80.96;100988.34;5010357;28;20052;-77
2021/05/20 10:38:46;;;;;;;29.98;14.95;;;15.30;85.10;;;13.97;78.40;100986.13;5010277;28;20049;-77
2021/05/20 10:41:22;;;;;;;26.90;16.33;;;15.40;83.70;;;13.94;78.54;100982.97;5009521;28;20521;-77
2021/05/20 10:44:12;;;;;;;27.23;14.95;;;15.50;83.20;;;13.95;77.17;100976.44;4990616;28;20434;-76
2021/05/20 10:47:10;;;;;;;27.15;15.40;;;15.50;82.40;;;14.01;79.12;100979.25;4987977;28;20046;-76
2021/05/20 10:50:10;;;;;;;24.27;14.32;;;15.50;82.90;;;14.10;78.00;100965.41;4988782;28;20050;-77
2021/05/20 10:52:55;;;;;;;20.20;12.25;;;15.60;83.10;;;14.18;76.03;100968.00;4989507;28;20046;-76